sensor_id;sensor_type;location;lat;lon;timestamp;temperature;humidity
21246;DHT22;10781;50.928;4.440;2023-09-19T00:00:23;16.70;99.90
21246;DHT22;10781;50.928;4.440;2023-09-19T00:02:58;16.60;99.90
21246;DHT22;10781;50.928;4.440;2023-09-19T00:05:28;16.50;99.90
21246;DHT22;10781;50.928;4.440;2023-09-19T00:07:55;16.50;99.90
21246;DHT22;10781;50.928;4.440;2023-09-19T00:10:24;16.50;99.90
21246;DHT22;10781;50.928;4.440;2023-09-19T00:12:52;16.50;99.90
21246;DHT22;10781;50.928;4.440;2023-09-19T00:15:25;16.50;99.90
21246;DHT22;10781;50.928;4.440;2023-09-19T00:17:54;16.60;99.90
21246;DHT22;10781;50.928;4.440;2023-09-19T00:20:20;16.60;99.90
21246;DHT22;10781;50.928;4.440;2023-09-19T00:22:50;16.50;99.90
21246;DHT22;10781;50.928;4.440;2023-09-19T00:25:20;16.50;99.90
21246;DHT22;10781;50.928;4.440;2023-09-19T00:27:46;16.50;99.90
21246;DHT22;10781;50.928;4.440;2023-09-19T00:30:15;16.60;99.90
21246;DHT22;10781;50.928;4.440;2023-09-19T00:32:50;16.50;99.90
21246;DHT22;10781;50.928;4.440;2023-09-19T00:35:22;16.50;99.90
21246;DHT22;10781;50.928;4.440;2023-09-19T00:37:51;16.50;99.90
21246;DHT22;10781;50.928;4.440;2023-09-19T00:40:17;16.50;99.90
21246;DHT22;10781;50.928;4.440;2023-09-19T00:42:44;16.60;99.90
21246;DHT22;10781;50.928;4.440;2023-09-19T00:45:12;16.60;99.90
21246;DHT22;10781;50.928;4.440;2023-09-19T00:47:40;16.60;99.90
21246;DHT22;10781;50.928;4.440;2023-09-19T00:50:08;16.70;99.90
21246;DHT22;10781;50.928;4.440;2023-09-19T00:52:37;16.70;99.90
21246;DHT22;10781;50.928;4.440;2023-09-19T00:55:08;16.60;99.90
21246;DHT22;10781;50.928;4.440;2023-09-19T00:57:36;16.70;99.90
21246;DHT22;10781;50.928;4.440;2023-09-19T01:00:05;16.60;99.90
21246;DHT22;10781;50.928;4.440;2023-09-19T01:02:33;16.60;99.90
21246;DHT22;10781;50.928;4.440;2023-09-19T01:04:59;16.60;99.90
21246;DHT22;10781;50.928;4.440;2023-09-19T01:07:26;16.70;99.90
21246;DHT22;10781;50.928;4.440;2023-09-19T01:09:52;16.50;99.90
21246;DHT22;10781;50.928;4.440;2023-09-19T01:12:24;16.40;99.90
21246;DHT22;10781;50.928;4.440;2023-09-19T01:15:04;16.30;99.90
21246;DHT22;10781;50.928;4.440;2023-09-19T01:26:17;16.30;99.90
21246;DHT22;10781;50.928;4.440;2023-09-19T01:31:51;16.20;99.90
21246;DHT22;10781;50.928;4.440;2023-09-19T01:34:19;16.20;99.90
21246;DHT22;10781;50.928;4.440;2023-09-19T01:36:46;16.20;99.90
21246;DHT22;10781;50.928;4.440;2023-09-19T01:39:12;16.10;99.90
21246;DHT22;10781;50.928;4.440;2023-09-19T01:44:38;16.30;99.90
21246;DHT22;10781;50.928;4.440;2023-09-19T01:47:19;16.30;99.90
21246;DHT22;10781;50.928;4.440;2023-09-19T01:52:42;16.30;99.90
21246;DHT22;10781;50.928;4.440;2023-09-19T01:55:11;16.10;99.90
21246;DHT22;10781;50.928;4.440;2023-09-19T01:57:58;16.30;99.90
21246;DHT22;10781;50.928;4.440;2023-09-19T02:00:28;16.40;99.90
21246;DHT22;10781;50.928;4.440;2023-09-19T02:02:56;16.30;99.90
21246;DHT22;10781;50.928;4.440;2023-09-19T02:05:25;16.40;99.90
21246;DHT22;10781;50.928;4.440;2023-09-19T02:07:52;16.40;99.90
21246;DHT22;10781;50.928;4.440;2023-09-19T02:10:19;16.40;99.90
21246;DHT22;10781;50.928;4.440;2023-09-19T02:12:44;16.50;99.90
21246;DHT22;10781;50.928;4.440;2023-09-19T02:15:10;16.40;99.90
21246;DHT22;10781;50.928;4.440;2023-09-19T02:17:36;16.40;99.90
21246;DHT22;10781;50.928;4.440;2023-09-19T02:20:03;16.50;99.90
21246;DHT22;10781;50.928;4.440;2023-09-19T02:22:36;16.60;99.90
21246;DHT22;10781;50.928;4.440;2023-09-19T02:25:02;16.50;99.90
21246;DHT22;10781;50.928;4.440;2023-09-19T02:27:30;16.50;99.90
21246;DHT22;10781;50.928;4.440;2023-09-19T02:29:56;16.40;99.90
21246;DHT22;10781;50.928;4.440;2023-09-19T02:32:22;16.50;99.90
21246;DHT22;10781;50.928;4.440;2023-09-19T02:34:48;16.50;99.90
21246;DHT22;10781;50.928;4.440;2023-09-19T02:37:14;16.60;99.90
21246;DHT22;10781;50.928;4.440;2023-09-19T02:39:41;16.50;99.90
21246;DHT22;10781;50.928;4.440;2023-09-19T02:42:07;16.30;99.90
21246;DHT22;10781;50.928;4.440;2023-09-19T02:44:33;16.30;99.90
21246;DHT22;10781;50.928;4.440;2023-09-19T02:46:59;16.40;99.90
21246;DHT22;10781;50.928;4.440;2023-09-19T02:49:25;16.40;99.90
21246;DHT22;10781;50.928;4.440;2023-09-19T02:51:50;16.60;99.90
21246;DHT22;10781;50.928;4.440;2023-09-19T02:54:17;16.60;99.90
21246;DHT22;10781;50.928;4.440;2023-09-19T02:56:43;16.80;99.90
21246;DHT22;10781;50.928;4.440;2023-09-19T02:59:09;16.70;99.90
21246;DHT22;10781;50.928;4.440;2023-09-19T03:01:38;16.70;99.90
21246;DHT22;10781;50.928;4.440;2023-09-19T03:04:04;16.60;99.90
21246;DHT22;10781;50.928;4.440;2023-09-19T03:06:31;16.40;99.90
21246;DHT22;10781;50.928;4.440;2023-09-19T03:08:58;16.40;99.90
21246;DHT22;10781;50.928;4.440;2023-09-19T03:11:25;16.30;99.90
21246;DHT22;10781;50.928;4.440;2023-09-19T03:13:54;16.20;99.90
21246;DHT22;10781;50.928;4.440;2023-09-19T03:16:20;16.10;99.90
21246;DHT22;10781;50.928;4.440;2023-09-19T03:18:48;16.10;99.90
21246;DHT22;10781;50.928;4.440;2023-09-19T03:21:15;16.10;99.90
21246;DHT22;10781;50.928;4.440;2023-09-19T03:23:42;16.10;99.90
21246;DHT22;10781;50.928;4.440;2023-09-19T03:26:10;16.10;99.90
21246;DHT22;10781;50.928;4.440;2023-09-19T03:28:37;16.10;99.90
21246;DHT22;10781;50.928;4.440;2023-09-19T03:31:05;16.10;99.90
21246;DHT22;10781;50.928;4.440;2023-09-19T03:33:31;16.10;99.90
21246;DHT22;10781;50.928;4.440;2023-09-19T03:35:58;16.10;99.90
21246;DHT22;10781;50.928;4.440;2023-09-19T03:38:25;16.10;99.90
21246;DHT22;10781;50.928;4.440;2023-09-19T03:40:51;16.00;99.90
21246;DHT22;10781;50.928;4.440;2023-09-19T03:43:16;16.00;99.90
21246;DHT22;10781;50.928;4.440;2023-09-19T03:45:43;15.90;99.90
21246;DHT22;10781;50.928;4.440;2023-09-19T03:48:12;16.10;99.90
21246;DHT22;10781;50.928;4.440;2023-09-19T03:50:37;16.20;99.90
21246;DHT22;10781;50.928;4.440;2023-09-19T03:53:03;16.10;99.90
21246;DHT22;10781;50.928;4.440;2023-09-19T03:55:29;16.00;99.90
21246;DHT22;10781;50.928;4.440;2023-09-19T03:57:58;16.00;99.90
21246;DHT22;10781;50.928;4.440;2023-09-19T04:00:23;15.90;99.90
21246;DHT22;10781;50.928;4.440;2023-09-19T04:02:52;15.90;99.90
21246;DHT22;10781;50.928;4.440;2023-09-19T04:05:18;16.10;99.90
21246;DHT22;10781;50.928;4.440;2023-09-19T04:07:44;16.10;99.90
21246;DHT22;10781;50.928;4.440;2023-09-19T04:10:09;16.00;99.90
21246;DHT22;10781;50.928;4.440;2023-09-19T04:12:37;15.90;99.90
21246;DHT22;10781;50.928;4.440;2023-09-19T04:15:07;15.90;99.90
21246;DHT22;10781;50.928;4.440;2023-09-19T04:17:34;15.90;99.90
21246;DHT22;10781;50.928;4.440;2023-09-19T04:19:59;15.90;99.90
21246;DHT22;10781;50.928;4.440;2023-09-19T04:22:25;15.90;99.90
21246;DHT22;10781;50.928;4.440;2023-09-19T04:24:51;15.80;99.90
21246;DHT22;10781;50.928;4.440;2023-09-19T04:27:17;15.90;99.90
21246;DHT22;10781;50.928;4.440;2023-09-19T04:29:44;15.80;99.90
21246;DHT22;10781;50.928;4.440;2023-09-19T04:32:10;15.80;99.90
21246;DHT22;10781;50.928;4.440;2023-09-19T04:34:36;15.80;99.90
21246;DHT22;10781;50.928;4.440;2023-09-19T04:37:01;15.70;99.90
21246;DHT22;10781;50.928;4.440;2023-09-19T04:39:28;15.60;99.90
21246;DHT22;10781;50.928;4.440;2023-09-19T04:41:54;15.60;99.90
21246;DHT22;10781;50.928;4.440;2023-09-19T04:44:20;15.70;99.90
21246;DHT22;10781;50.928;4.440;2023-09-19T04:46:46;15.70;99.90
21246;DHT22;10781;50.928;4.440;2023-09-19T04:49:12;15.60;99.90
21246;DHT22;10781;50.928;4.440;2023-09-19T04:51:38;15.60;99.90
21246;DHT22;10781;50.928;4.440;2023-09-19T04:54:05;15.60;99.90
21246;DHT22;10781;50.928;4.440;2023-09-19T04:56:31;15.50;99.90
21246;DHT22;10781;50.928;4.440;2023-09-19T04:58:58;15.40;99.90
21246;DHT22;10781;50.928;4.440;2023-09-19T05:01:24;15.50;99.90
21246;DHT22;10781;50.928;4.440;2023-09-19T05:03:50;15.50;99.90
21246;DHT22;10781;50.928;4.440;2023-09-19T05:06:22;15.50;99.90
21246;DHT22;10781;50.928;4.440;2023-09-19T05:08:48;15.50;99.90
21246;DHT22;10781;50.928;4.440;2023-09-19T05:11:18;15.50;99.90
21246;DHT22;10781;50.928;4.440;2023-09-19T05:13:45;15.40;99.90
21246;DHT22;10781;50.928;4.440;2023-09-19T05:16:11;15.50;99.90
21246;DHT22;10781;50.928;4.440;2023-09-19T05:18:36;15.50;99.90
21246;DHT22;10781;50.928;4.440;2023-09-19T05:21:02;15.50;99.90
21246;DHT22;10781;50.928;4.440;2023-09-19T05:23:28;15.50;99.90
21246;DHT22;10781;50.928;4.440;2023-09-19T05:25:54;15.50;99.90
21246;DHT22;10781;50.928;4.440;2023-09-19T05:28:22;15.50;99.90
21246;DHT22;10781;50.928;4.440;2023-09-19T05:30:47;15.40;99.90
21246;DHT22;10781;50.928;4.440;2023-09-19T05:33:14;15.40;99.90
21246;DHT22;10781;50.928;4.440;2023-09-19T05:35:40;15.50;99.90
21246;DHT22;10781;50.928;4.440;2023-09-19T05:38:07;15.60;99.90
21246;DHT22;10781;50.928;4.440;2023-09-19T05:40:38;15.50;99.90
21246;DHT22;10781;50.928;4.440;2023-09-19T05:43:04;15.60;99.90
21246;DHT22;10781;50.928;4.440;2023-09-19T05:45:31;15.50;99.90
21246;DHT22;10781;50.928;4.440;2023-09-19T05:48:10;15.50;99.90
21246;DHT22;10781;50.928;4.440;2023-09-19T05:50:41;15.60;99.90
21246;DHT22;10781;50.928;4.440;2023-09-19T05:53:07;15.70;99.90
21246;DHT22;10781;50.928;4.440;2023-09-19T05:55:33;15.70;99.90
21246;DHT22;10781;50.928;4.440;2023-09-19T05:57:59;15.80;99.90
21246;DHT22;10781;50.928;4.440;2023-09-19T06:00:26;15.80;99.90
21246;DHT22;10781;50.928;4.440;2023-09-19T06:02:53;15.70;99.90
21246;DHT22;10781;50.928;4.440;2023-09-19T06:05:21;15.80;99.90
21246;DHT22;10781;50.928;4.440;2023-09-19T06:07:47;15.90;99.90
21246;DHT22;10781;50.928;4.440;2023-09-19T06:10:13;15.90;99.90
21246;DHT22;10781;50.928;4.440;2023-09-19T06:12:40;16.00;99.90
21246;DHT22;10781;50.928;4.440;2023-09-19T06:15:09;16.10;99.90
21246;DHT22;10781;50.928;4.440;2023-09-19T06:17:38;16.10;99.90
21246;DHT22;10781;50.928;4.440;2023-09-19T06:20:07;16.00;99.90
21246;DHT22;10781;50.928;4.440;2023-09-19T06:22:40;16.00;99.90
21246;DHT22;10781;50.928;4.440;2023-09-19T06:25:07;16.20;99.90
21246;DHT22;10781;50.928;4.440;2023-09-19T06:27:33;16.30;99.90
21246;DHT22;10781;50.928;4.440;2023-09-19T06:30:01;16.30;99.90
21246;DHT22;10781;50.928;4.440;2023-09-19T06:32:28;16.30;99.90
21246;DHT22;10781;50.928;4.440;2023-09-19T06:34:54;16.50;99.90
21246;DHT22;10781;50.928;4.440;2023-09-19T06:37:21;16.70;99.90
21246;DHT22;10781;50.928;4.440;2023-09-19T06:39:47;16.80;99.90
21246;DHT22;10781;50.928;4.440;2023-09-19T06:42:15;16.80;99.90
21246;DHT22;10781;50.928;4.440;2023-09-19T06:44:42;17.00;99.90
21246;DHT22;10781;50.928;4.440;2023-09-19T06:47:08;17.10;99.90
21246;DHT22;10781;50.928;4.440;2023-09-19T06:49:35;17.00;99.90
21246;DHT22;10781;50.928;4.440;2023-09-19T06:52:01;17.00;99.90
21246;DHT22;10781;50.928;4.440;2023-09-19T06:54:28;16.90;99.90
21246;DHT22;10781;50.928;4.440;2023-09-19T06:57:00;16.90;99.90
21246;DHT22;10781;50.928;4.440;2023-09-19T06:59:26;16.80;99.90
21246;DHT22;10781;50.928;4.440;2023-09-19T07:01:51;16.90;99.90
21246;DHT22;10781;50.928;4.440;2023-09-19T07:04:18;17.00;99.90
21246;DHT22;10781;50.928;4.440;2023-09-19T07:06:50;16.90;99.90
21246;DHT22;10781;50.928;4.440;2023-09-19T07:09:16;17.00;99.90
21246;DHT22;10781;50.928;4.440;2023-09-19T07:11:42;17.00;99.90
21246;DHT22;10781;50.928;4.440;2023-09-19T07:14:08;17.10;99.90
21246;DHT22;10781;50.928;4.440;2023-09-19T07:16:37;17.20;99.90
21246;DHT22;10781;50.928;4.440;2023-09-19T07:19:04;17.40;99.90
21246;DHT22;10781;50.928;4.440;2023-09-19T07:21:30;17.60;99.90
21246;DHT22;10781;50.928;4.440;2023-09-19T07:23:59;17.90;99.90
21246;DHT22;10781;50.928;4.440;2023-09-19T07:26:26;18.30;99.90
21246;DHT22;10781;50.928;4.440;2023-09-19T07:28:53;18.70;99.90
21246;DHT22;10781;50.928;4.440;2023-09-19T07:31:19;19.20;99.90
21246;DHT22;10781;50.928;4.440;2023-09-19T07:33:45;19.40;99.90
21246;DHT22;10781;50.928;4.440;2023-09-19T07:36:11;19.70;99.90
21246;DHT22;10781;50.928;4.440;2023-09-19T07:38:40;19.90;99.90
21246;DHT22;10781;50.928;4.440;2023-09-19T07:41:07;20.10;99.90
21246;DHT22;10781;50.928;4.440;2023-09-19T07:43:35;20.20;99.90
21246;DHT22;10781;50.928;4.440;2023-09-19T07:46:07;20.40;99.90
21246;DHT22;10781;50.928;4.440;2023-09-19T07:48:37;20.30;99.90
21246;DHT22;10781;50.928;4.440;2023-09-19T07:51:07;20.70;99.90
21246;DHT22;10781;50.928;4.440;2023-09-19T07:53:34;20.90;99.90
21246;DHT22;10781;50.928;4.440;2023-09-19T07:56:05;20.90;99.90
21246;DHT22;10781;50.928;4.440;2023-09-19T07:58:31;21.00;99.90
21246;DHT22;10781;50.928;4.440;2023-09-19T08:01:05;20.90;99.90
21246;DHT22;10781;50.928;4.440;2023-09-19T08:03:32;21.10;99.90
21246;DHT22;10781;50.928;4.440;2023-09-19T08:05:58;20.80;99.90
21246;DHT22;10781;50.928;4.440;2023-09-19T08:08:23;21.00;99.90
21246;DHT22;10781;50.928;4.440;2023-09-19T08:10:56;20.80;99.90
21246;DHT22;10781;50.928;4.440;2023-09-19T08:13:26;21.00;99.90
21246;DHT22;10781;50.928;4.440;2023-09-19T08:15:52;21.20;99.90
21246;DHT22;10781;50.928;4.440;2023-09-19T08:18:20;21.70;99.90
21246;DHT22;10781;50.928;4.440;2023-09-19T08:20:51;22.30;99.90
21246;DHT22;10781;50.928;4.440;2023-09-19T08:23:18;22.30;99.90
21246;DHT22;10781;50.928;4.440;2023-09-19T08:25:46;22.30;99.90
21246;DHT22;10781;50.928;4.440;2023-09-19T08:28:11;22.40;99.90
21246;DHT22;10781;50.928;4.440;2023-09-19T08:30:39;22.50;99.90
21246;DHT22;10781;50.928;4.440;2023-09-19T08:33:06;22.80;99.90
21246;DHT22;10781;50.928;4.440;2023-09-19T08:35:33;23.40;99.90
21246;DHT22;10781;50.928;4.440;2023-09-19T08:37:59;23.20;99.90
21246;DHT22;10781;50.928;4.440;2023-09-19T08:40:36;23.40;99.90
21246;DHT22;10781;50.928;4.440;2023-09-19T08:43:02;23.30;99.90
21246;DHT22;10781;50.928;4.440;2023-09-19T08:45:28;23.10;99.90
21246;DHT22;10781;50.928;4.440;2023-09-19T08:48:16;23.20;99.90
21246;DHT22;10781;50.928;4.440;2023-09-19T08:50:57;23.40;99.90
21246;DHT22;10781;50.928;4.440;2023-09-19T08:56:09;24.00;99.90
21246;DHT22;10781;50.928;4.440;2023-09-19T08:58:44;24.60;99.90
21246;DHT22;10781;50.928;4.440;2023-09-19T09:01:14;24.80;99.90
21246;DHT22;10781;50.928;4.440;2023-09-19T09:03:41;24.20;99.90
21246;DHT22;10781;50.928;4.440;2023-09-19T09:06:09;23.80;99.90
21246;DHT22;10781;50.928;4.440;2023-09-19T09:08:36;24.10;99.90
21246;DHT22;10781;50.928;4.440;2023-09-19T09:11:02;24.10;99.90
21246;DHT22;10781;50.928;4.440;2023-09-19T09:13:29;23.70;99.90
21246;DHT22;10781;50.928;4.440;2023-09-19T09:15:54;23.40;99.90
21246;DHT22;10781;50.928;4.440;2023-09-19T09:18:20;23.70;99.90
21246;DHT22;10781;50.928;4.440;2023-09-19T09:20:46;23.50;99.90
21246;DHT22;10781;50.928;4.440;2023-09-19T09:23:13;23.60;99.90
21246;DHT22;10781;50.928;4.440;2023-09-19T09:25:50;24.10;99.90
21246;DHT22;10781;50.928;4.440;2023-09-19T09:28:21;23.90;99.90
21246;DHT22;10781;50.928;4.440;2023-09-19T09:30:47;24.40;99.90
21246;DHT22;10781;50.928;4.440;2023-09-19T09:33:14;24.70;99.90
21246;DHT22;10781;50.928;4.440;2023-09-19T09:35:54;23.40;99.90
21246;DHT22;10781;50.928;4.440;2023-09-19T09:41:10;22.50;99.90
21246;DHT22;10781;50.928;4.440;2023-09-19T09:43:40;22.10;99.90
21246;DHT22;10781;50.928;4.440;2023-09-19T09:48:48;21.70;99.90
21246;DHT22;10781;50.928;4.440;2023-09-19T09:51:40;21.90;99.90
21246;DHT22;10781;50.928;4.440;2023-09-19T09:54:15;21.90;99.90
21246;DHT22;10781;50.928;4.440;2023-09-19T09:56:58;21.60;99.90
21246;DHT22;10781;50.928;4.440;2023-09-19T10:02:24;21.60;99.90
21246;DHT22;10781;50.928;4.440;2023-09-19T10:04:52;21.60;99.90
21246;DHT22;10781;50.928;4.440;2023-09-19T10:07:29;21.70;99.90
21246;DHT22;10781;50.928;4.440;2023-09-19T10:10:01;22.40;99.90
21246;DHT22;10781;50.928;4.440;2023-09-19T10:12:38;23.10;99.90
21246;DHT22;10781;50.928;4.440;2023-09-19T10:15:08;23.50;99.90
21246;DHT22;10781;50.928;4.440;2023-09-19T10:17:36;23.60;99.90
21246;DHT22;10781;50.928;4.440;2023-09-19T10:20:05;24.10;99.90
21246;DHT22;10781;50.928;4.440;2023-09-19T10:22:43;25.20;99.90
21246;DHT22;10781;50.928;4.440;2023-09-19T10:25:11;26.60;99.90
21246;DHT22;10781;50.928;4.440;2023-09-19T10:27:39;27.30;99.90
21246;DHT22;10781;50.928;4.440;2023-09-19T10:30:06;27.80;99.90
21246;DHT22;10781;50.928;4.440;2023-09-19T10:32:35;27.90;99.90
21246;DHT22;10781;50.928;4.440;2023-09-19T10:35:02;28.30;99.90
21246;DHT22;10781;50.928;4.440;2023-09-19T10:37:32;27.70;99.90
21246;DHT22;10781;50.928;4.440;2023-09-19T10:39:59;27.30;99.90
21246;DHT22;10781;50.928;4.440;2023-09-19T10:42:25;27.30;99.90
21246;DHT22;10781;50.928;4.440;2023-09-19T10:44:55;28.90;99.90
21246;DHT22;10781;50.928;4.440;2023-09-19T10:47:26;29.10;99.90
21246;DHT22;10781;50.928;4.440;2023-09-19T10:49:52;29.30;99.90
21246;DHT22;10781;50.928;4.440;2023-09-19T10:52:23;29.40;98.60
21246;DHT22;10781;50.928;4.440;2023-09-19T10:54:52;28.70;99.00
21246;DHT22;10781;50.928;4.440;2023-09-19T10:57:23;29.10;98.40
21246;DHT22;10781;50.928;4.440;2023-09-19T11:00:09;28.80;97.80
21246;DHT22;10781;50.928;4.440;2023-09-19T11:05:40;28.20;98.10
21246;DHT22;10781;50.928;4.440;2023-09-19T11:08:10;27.90;98.90
21246;DHT22;10781;50.928;4.440;2023-09-19T11:10:51;28.10;98.80
21246;DHT22;10781;50.928;4.440;2023-09-19T11:13:30;27.80;98.50
21246;DHT22;10781;50.928;4.440;2023-09-19T11:16:03;28.50;99.60
21246;DHT22;10781;50.928;4.440;2023-09-19T11:26:50;29.10;98.00
21246;DHT22;10781;50.928;4.440;2023-09-19T11:29:27;30.20;96.50
21246;DHT22;10781;50.928;4.440;2023-09-19T11:31:54;30.50;94.60
21246;DHT22;10781;50.928;4.440;2023-09-19T11:40:08;28.70;96.10
21246;DHT22;10781;50.928;4.440;2023-09-19T11:42:46;27.90;96.10
21246;DHT22;10781;50.928;4.440;2023-09-19T11:48:26;28.00;97.60
21246;DHT22;10781;50.928;4.440;2023-09-19T11:50:53;27.80;97.30
21246;DHT22;10781;50.928;4.440;2023-09-19T11:53:19;27.10;98.20
21246;DHT22;10781;50.928;4.440;2023-09-19T11:55:45;27.00;98.20
21246;DHT22;10781;50.928;4.440;2023-09-19T11:58:18;26.40;99.30
21246;DHT22;10781;50.928;4.440;2023-09-19T12:00:45;25.80;99.90
21246;DHT22;10781;50.928;4.440;2023-09-19T12:03:12;25.20;99.90
21246;DHT22;10781;50.928;4.440;2023-09-19T12:05:40;24.90;99.90
21246;DHT22;10781;50.928;4.440;2023-09-19T12:08:08;24.50;99.90
21246;DHT22;10781;50.928;4.440;2023-09-19T12:10:45;24.50;99.90
21246;DHT22;10781;50.928;4.440;2023-09-19T12:13:16;24.20;99.90
21246;DHT22;10781;50.928;4.440;2023-09-19T12:15:43;23.70;99.90
21246;DHT22;10781;50.928;4.440;2023-09-19T12:18:25;23.50;99.90
21246;DHT22;10781;50.928;4.440;2023-09-19T12:20:51;24.60;99.90
21246;DHT22;10781;50.928;4.440;2023-09-19T12:23:17;25.10;99.90
21246;DHT22;10781;50.928;4.440;2023-09-19T12:25:45;25.20;99.90
21246;DHT22;10781;50.928;4.440;2023-09-19T12:28:16;25.30;99.90
21246;DHT22;10781;50.928;4.440;2023-09-19T12:30:47;25.20;99.90
21246;DHT22;10781;50.928;4.440;2023-09-19T12:33:19;25.20;99.90
21246;DHT22;10781;50.928;4.440;2023-09-19T12:35:46;25.30;99.90
21246;DHT22;10781;50.928;4.440;2023-09-19T12:38:25;25.60;99.90
21246;DHT22;10781;50.928;4.440;2023-09-19T12:40:57;25.50;99.90
21246;DHT22;10781;50.928;4.440;2023-09-19T12:43:26;25.20;99.90
21246;DHT22;10781;50.928;4.440;2023-09-19T12:45:52;24.70;99.90
21246;DHT22;10781;50.928;4.440;2023-09-19T12:51:12;24.30;99.90
21246;DHT22;10781;50.928;4.440;2023-09-19T12:53:41;24.20;99.90
21246;DHT22;10781;50.928;4.440;2023-09-19T12:56:18;23.80;99.90
21246;DHT22;10781;50.928;4.440;2023-09-19T12:58:53;24.00;99.90
21246;DHT22;10781;50.928;4.440;2023-09-19T13:01:20;23.70;99.90
21246;DHT22;10781;50.928;4.440;2023-09-19T13:03:45;23.80;99.90
21246;DHT22;10781;50.928;4.440;2023-09-19T13:06:11;23.70;99.90
21246;DHT22;10781;50.928;4.440;2023-09-19T13:08:39;23.70;99.90
21246;DHT22;10781;50.928;4.440;2023-09-19T13:13:51;24.00;99.90
21246;DHT22;10781;50.928;4.440;2023-09-19T13:16:21;24.20;99.90
21246;DHT22;10781;50.928;4.440;2023-09-19T13:18:53;23.60;99.90
21246;DHT22;10781;50.928;4.440;2023-09-19T13:21:34;23.20;99.90
21246;DHT22;10781;50.928;4.440;2023-09-19T13:24:18;23.00;99.90
21246;DHT22;10781;50.928;4.440;2023-09-19T13:26:44;22.80;99.90
21246;DHT22;10781;50.928;4.440;2023-09-19T13:29:11;22.50;99.90
21246;DHT22;10781;50.928;4.440;2023-09-19T13:31:37;22.50;99.90
21246;DHT22;10781;50.928;4.440;2023-09-19T13:34:07;22.60;99.90
21246;DHT22;10781;50.928;4.440;2023-09-19T13:36:32;22.80;99.90
21246;DHT22;10781;50.928;4.440;2023-09-19T13:38:59;23.10;99.90
21246;DHT22;10781;50.928;4.440;2023-09-19T13:41:25;23.20;99.90
21246;DHT22;10781;50.928;4.440;2023-09-19T13:43:51;23.20;99.90
21246;DHT22;10781;50.928;4.440;2023-09-19T13:46:17;23.20;99.90
21246;DHT22;10781;50.928;4.440;2023-09-19T13:48:50;23.20;99.90
21246;DHT22;10781;50.928;4.440;2023-09-19T13:51:17;23.20;99.90
21246;DHT22;10781;50.928;4.440;2023-09-19T13:53:44;23.00;99.90
21246;DHT22;10781;50.928;4.440;2023-09-19T13:56:10;22.90;99.90
21246;DHT22;10781;50.928;4.440;2023-09-19T13:58:36;22.90;99.90
21246;DHT22;10781;50.928;4.440;2023-09-19T14:01:02;23.00;99.90
21246;DHT22;10781;50.928;4.440;2023-09-19T14:03:27;22.80;99.90
21246;DHT22;10781;50.928;4.440;2023-09-19T14:05:56;23.00;99.90
21246;DHT22;10781;50.928;4.440;2023-09-19T14:08:22;23.20;99.90
21246;DHT22;10781;50.928;4.440;2023-09-19T14:10:49;22.90;99.90
21246;DHT22;10781;50.928;4.440;2023-09-19T14:13:15;23.00;99.90
21246;DHT22;10781;50.928;4.440;2023-09-19T14:15:41;22.60;99.90
21246;DHT22;10781;50.928;4.440;2023-09-19T14:18:08;22.50;99.90
21246;DHT22;10781;50.928;4.440;2023-09-19T14:20:38;22.40;99.90
21246;DHT22;10781;50.928;4.440;2023-09-19T14:23:05;22.50;99.90
21246;DHT22;10781;50.928;4.440;2023-09-19T14:25:34;22.90;99.90
21246;DHT22;10781;50.928;4.440;2023-09-19T14:28:00;23.50;99.90
21246;DHT22;10781;50.928;4.440;2023-09-19T14:30:26;23.90;99.90
21246;DHT22;10781;50.928;4.440;2023-09-19T14:32:53;24.00;99.90
21246;DHT22;10781;50.928;4.440;2023-09-19T14:35:19;24.50;99.90
21246;DHT22;10781;50.928;4.440;2023-09-19T14:37:44;24.90;99.90
21246;DHT22;10781;50.928;4.440;2023-09-19T14:40:11;24.60;99.90
21246;DHT22;10781;50.928;4.440;2023-09-19T14:42:39;24.50;99.90
21246;DHT22;10781;50.928;4.440;2023-09-19T14:45:05;24.40;99.90
21246;DHT22;10781;50.928;4.440;2023-09-19T14:47:32;24.50;99.90
21246;DHT22;10781;50.928;4.440;2023-09-19T14:50:00;24.20;99.90
21246;DHT22;10781;50.928;4.440;2023-09-19T14:52:26;24.00;99.90
21246;DHT22;10781;50.928;4.440;2023-09-19T14:54:53;23.70;99.90
21246;DHT22;10781;50.928;4.440;2023-09-19T14:57:20;23.40;99.90
21246;DHT22;10781;50.928;4.440;2023-09-19T14:59:45;23.20;99.90
21246;DHT22;10781;50.928;4.440;2023-09-19T15:02:11;22.80;99.90
21246;DHT22;10781;50.928;4.440;2023-09-19T15:04:37;22.70;99.90
21246;DHT22;10781;50.928;4.440;2023-09-19T15:07:06;22.50;99.90
21246;DHT22;10781;50.928;4.440;2023-09-19T15:09:31;22.20;99.90
21246;DHT22;10781;50.928;4.440;2023-09-19T15:11:59;22.20;99.90
21246;DHT22;10781;50.928;4.440;2023-09-19T15:14:24;22.00;99.90
21246;DHT22;10781;50.928;4.440;2023-09-19T15:16:55;21.80;99.90
21246;DHT22;10781;50.928;4.440;2023-09-19T15:19:20;21.90;99.90
21246;DHT22;10781;50.928;4.440;2023-09-19T15:21:48;21.90;99.90
21246;DHT22;10781;50.928;4.440;2023-09-19T15:24:14;21.80;99.90
21246;DHT22;10781;50.928;4.440;2023-09-19T15:26:40;21.70;99.90
21246;DHT22;10781;50.928;4.440;2023-09-19T15:29:06;21.80;99.90
21246;DHT22;10781;50.928;4.440;2023-09-19T15:31:32;21.70;99.90
21246;DHT22;10781;50.928;4.440;2023-09-19T15:33:58;21.70;99.90
21246;DHT22;10781;50.928;4.440;2023-09-19T15:36:24;21.70;99.90
21246;DHT22;10781;50.928;4.440;2023-09-19T15:41:23;21.60;99.90
21246;DHT22;10781;50.928;4.440;2023-09-19T15:43:49;21.50;99.90
21246;DHT22;10781;50.928;4.440;2023-09-19T15:46:15;21.30;99.90
21246;DHT22;10781;50.928;4.440;2023-09-19T15:48:41;21.30;99.90
21246;DHT22;10781;50.928;4.440;2023-09-19T15:51:07;21.30;99.90
21246;DHT22;10781;50.928;4.440;2023-09-19T15:53:43;21.30;99.90
21246;DHT22;10781;50.928;4.440;2023-09-19T15:56:12;21.30;99.90
21246;DHT22;10781;50.928;4.440;2023-09-19T15:58:43;21.20;99.90
21246;DHT22;10781;50.928;4.440;2023-09-19T16:01:09;21.10;99.90
21246;DHT22;10781;50.928;4.440;2023-09-19T16:03:39;21.10;99.90
21246;DHT22;10781;50.928;4.440;2023-09-19T16:06:09;21.10;99.90
21246;DHT22;10781;50.928;4.440;2023-09-19T16:08:38;21.10;99.90
21246;DHT22;10781;50.928;4.440;2023-09-19T16:11:04;21.20;99.90
21246;DHT22;10781;50.928;4.440;2023-09-19T16:13:29;21.20;99.90
21246;DHT22;10781;50.928;4.440;2023-09-19T16:15:55;21.30;99.90
21246;DHT22;10781;50.928;4.440;2023-09-19T16:18:21;21.10;99.90
21246;DHT22;10781;50.928;4.440;2023-09-19T16:20:47;21.10;99.90
21246;DHT22;10781;50.928;4.440;2023-09-19T16:23:13;21.10;99.90
21246;DHT22;10781;50.928;4.440;2023-09-19T16:25:38;21.10;99.90
21246;DHT22;10781;50.928;4.440;2023-09-19T16:28:04;21.10;99.90
21246;DHT22;10781;50.928;4.440;2023-09-19T16:30:32;21.00;99.90
21246;DHT22;10781;50.928;4.440;2023-09-19T16:32:59;21.10;99.90